TimeEDT,TemperatureF,Dew PointF,Humidity,Sea Level PressureIn,VisibilityMPH,Wind Direction,Wind SpeedMPH,Gust SpeedMPH,PrecipitationIn,Events,Conditions,WindDirDegrees,DateUTC
12:51 AM,51.1,35.1,54,30.26,10.0,South,6.9,-,N/A,,Overcast,170,2013-04-29 04:51:00
1:51 AM,51.1,37.0,59,30.24,10.0,South,5.8,-,N/A,,Overcast,180,2013-04-29 05:51:00
2:51 AM,50.0,39.0,66,30.23,10.0,South,5.8,-,N/A,,Overcast,190,2013-04-29 06:51:00
3:51 AM,50.0,39.9,68,30.23,10.0,SW,4.6,-,N/A,,Overcast,220,2013-04-29 07:51:00
4:51 AM,48.9,39.9,71,30.23,10.0,Calm,Calm,-,N/A,,Overcast,0,2013-04-29 08:51:00
5:51 AM,50.0,41.0,71,30.24,10.0,Calm,Calm,-,N/A,,Overcast,0,2013-04-29 09:51:00
6:51 AM,50.0,42.1,74,30.25,10.0,Calm,Calm,-,N/A,,Overcast,0,2013-04-29 10:51:00
7:51 AM,52.0,44.1,74,30.26,10.0,Calm,Calm,-,N/A,,Overcast,0,2013-04-29 11:51:00
8:51 AM,55.0,45.0,69,30.25,10.0,ESE,5.8,-,N/A,,Mostly Cloudy,120,2013-04-29 12:51:00
9:51 AM,59.0,44.1,58,30.25,10.0,South,5.8,-,N/A,,Mostly Cloudy,180,2013-04-29 13:51:00
10:51 AM,62.1,39.9,44,30.24,10.0,SSW,9.2,-,N/A,,Mostly Cloudy,200,2013-04-29 14:51:00
11:51 AM,64.0,35.1,34,30.23,10.0,South,15.0,-,N/A,,Mostly Cloudy,170,2013-04-29 15:51:00
12:51 PM,63.0,35.1,35,30.22,10.0,South,12.7,19.6,N/A,,Overcast,190,2013-04-29 16:51:00
1:51 PM,62.1,33.1,34,30.22,10.0,South,11.5,-,N/A,,Overcast,190,2013-04-29 17:51:00
2:51 PM,61.0,33.1,35,30.22,10.0,South,15.0,-,N/A,,Overcast,190,2013-04-29 18:51:00
3:51 PM,61.0,27.0,27,30.22,10.0,South,13.8,-,N/A,,Overcast,190,2013-04-29 19:51:00
4:51 PM,59.0,33.1,38,30.22,10.0,SSW,8.1,-,N/A,,Overcast,210,2013-04-29 20:51:00
5:51 PM,59.0,30.0,33,30.21,10.0,South,10.4,-,N/A,,Overcast,170,2013-04-29 21:51:00
6:51 PM,57.9,21.9,25,30.22,10.0,South,10.4,-,N/A,,Overcast,170,2013-04-29 22:51:00
7:51 PM,57.0,25.0,29,30.22,10.0,South,9.2,-,N/A,,Overcast,170,2013-04-29 23:51:00
8:51 PM,55.9,30.0,37,30.24,10.0,SSE,8.1,-,N/A,,Overcast,160,2013-04-30 00:51:00
9:51 PM,55.0,30.9,40,30.25,10.0,SSE,8.1,-,N/A,,Overcast,160,2013-04-30 01:51:00
10:51 PM,54.0,34.0,47,30.26,10.0,South,6.9,-,N/A,,Overcast,170,2013-04-30 02:51:00
11:51 PM,53.1,35.1,50,30.25,10.0,SSE,5.8,-,N/A,,Mostly Cloudy,160,2013-04-30 03:51:00